Time;durP1;ratioP1;P1;durP2;ratioP2;P2;SDS_P1;SDS_P2;PMS_P1;PMS_P2;Temp;Humidity;BMP_temperature;BMP_pressure;BME280_temperature;BME280_humidity;BME280_pressure;Samples;Min_cycle;Max_cycle;Signal;HPM_P1;HPM_P2
2022/09/14 04:05:03;;;;;;;3.97;3.53;;;17.80;99.90;;;;;;6236798;22;20470;-62
2022/09/14 04:07:29;;;;;;;5.07;3.57;;;17.70;99.90;;;;;;6246679;23;20368;-62
2022/09/14 04:09:55;;;;;;;6.80;4.23;;;17.70;99.90;;;;;;6246686;23;20775;-62
2022/09/14 04:12:21;;;;;;;4.73;3.83;;;17.80;99.90;;;;;;6245632;23;20202;-61
2022/09/14 04:14:46;;;;;;;3.87;3.57;;;17.80;99.90;;;;;;6225451;23;20419;-61
2022/09/14 04:17:12;;;;;;;6.60;4.80;;;17.80;99.90;;;;;;6215821;23;20377;-61
2022/09/14 04:19:40;;;;;;;5.27;4.77;;;17.80;99.90;;;;;;6215820;23;20611;-61
2022/09/14 04:22:06;;;;;;;5.57;4.87;;;17.70;99.90;;;;;;6216194;23;20147;-62
2022/09/14 04:24:31;;;;;;;4.00;3.60;;;17.70;99.90;;;;;;6215206;23;20404;-61
2022/09/14 04:26:57;;;;;;;5.23;4.70;;;17.70;99.90;;;;;;6189208;23;20247;-61
2022/09/14 04:29:23;;;;;;;4.20;3.90;;;17.70;99.90;;;;;;6215628;23;20155;-62
2022/09/14 04:31:48;;;;;;;5.10;4.73;;;17.80;99.90;;;;;;6215996;23;20159;-62
2022/09/14 04:34:14;;;;;;;5.23;4.73;;;17.70;99.90;;;;;;6213590;23;20493;-61
2022/09/14 04:36:40;;;;;;;3.80;3.50;;;17.70;99.90;;;;;;6216128;23;20447;-61
2022/09/14 04:39:05;;;;;;;4.17;3.87;;;17.70;99.90;;;;;;6215203;23;20159;-61
2022/09/14 04:41:32;;;;;;;4.63;3.73;;;17.70;99.90;;;;;;6215867;23;20375;-61
2022/09/14 04:43:58;;;;;;;4.70;4.20;;;17.70;99.90;;;;;;6215249;23;20179;-61
2022/09/14 04:46:27;;;;;;;5.07;4.67;;;17.80;99.90;;;;;;6215587;23;20345;-61
2022/09/14 04:48:53;;;;;;;3.93;3.60;;;17.80;99.90;;;;;;6215495;23;20374;-62
2022/09/14 04:51:21;;;;;;;4.53;3.60;;;17.80;99.90;;;;;;6215197;23;20379;-61
2022/09/14 04:53:49;;;;;;;4.17;3.80;;;17.80;99.90;;;;;;6215445;23;20271;-62
2022/09/14 04:56:16;;;;;;;3.60;3.30;;;17.80;99.90;;;;;;6215287;23;20442;-61
2022/09/14 04:58:45;;;;;;;4.00;3.60;;;17.80;99.90;;;;;;6215243;23;20376;-62
2022/09/14 05:01:16;;;;;;;4.53;3.23;;;17.90;99.90;;;;;;6215534;23;20342;-61
2022/09/14 05:03:43;;;;;;;4.60;4.20;;;17.90;99.90;;;;;;6215057;23;20383;-62
2022/09/14 05:06:17;;;;;;;6.80;4.50;;;17.90;99.90;;;;;;6215544;23;20388;-61
2022/09/14 05:08:43;;;;;;;4.80;4.40;;;17.90;99.90;;;;;;6216025;23;20372;-62
2022/09/14 05:11:13;;;;;;;4.13;3.83;;;17.90;99.90;;;;;;6187725;23;20366;-62
2022/09/14 05:13:38;;;;;;;3.10;2.90;;;18.00;99.90;;;;;;6215101;23;20420;-62
2022/09/14 05:16:05;;;;;;;3.87;3.53;;;18.00;99.90;;;;;;6215422;23;20376;-62
2022/09/14 05:18:31;;;;;;;6.17;5.50;;;18.00;99.90;;;;;;6215257;23;20173;-62
2022/09/14 05:20:59;;;;;;;5.13;4.83;;;18.10;99.90;;;;;;6215318;23;20340;-61
2022/09/14 05:23:24;;;;;;;5.53;5.03;;;18.10;99.90;;;;;;6215012;23;20149;-63
2022/09/14 05:25:53;;;;;;;5.40;4.23;;;18.20;99.90;;;;;;6215135;23;20371;-61
2022/09/14 05:28:19;;;;;;;4.70;4.30;;;18.20;99.90;;;;;;6215288;23;20173;-62
2022/09/14 05:30:44;;;;;;;7.27;6.53;;;18.30;99.90;;;;;;6215312;23;20825;-62
2022/09/14 05:33:10;;;;;;;5.23;4.83;;;18.30;99.90;;;;;;6215036;23;20177;-62
2022/09/14 05:35:35;;;;;;;5.80;5.27;;;18.30;99.90;;;;;;6214813;23;20199;-61
2022/09/14 05:38:01;;;;;;;6.77;6.17;;;18.20;99.90;;;;;;6215401;23;20228;-62
2022/09/14 05:40:26;;;;;;;7.03;5.90;;;18.20;99.90;;;;;;6215306;23;20578;-61
2022/09/14 05:42:52;;;;;;;6.13;5.63;;;18.20;99.90;;;;;;6214889;23;20156;-62
2022/09/14 05:45:17;;;;;;;6.30;5.70;;;18.30;99.90;;;;;;6214868;23;20161;-62
2022/09/14 05:47:43;;;;;;;6.13;4.80;;;18.30;99.90;;;;;;6215236;23;20173;-62
2022/09/14 05:50:09;;;;;;;6.50;5.40;;;18.30;99.90;;;;;;6215101;23;20181;-62
2022/09/14 05:52:34;;;;;;;6.43;5.90;;;18.30;99.90;;;;;;6188299;23;20153;-62
2022/09/14 05:55:01;;;;;;;6.43;5.83;;;18.30;99.90;;;;;;6214896;23;20502;-62
2022/09/14 05:57:26;;;;;;;5.83;5.33;;;18.30;99.90;;;;;;6214901;23;20196;-62
2022/09/14 05:59:52;;;;;;;7.43;6.73;;;18.30;99.90;;;;;;6215145;23;20373;-62
2022/09/14 06:02:17;;;;;;;6.80;6.10;;;18.30;99.90;;;;;;6214901;23;20148;-62
2022/09/14 06:04:43;;;;;;;13.00;6.57;;;18.30;99.90;;;;;;6215053;23;20173;-62
2022/09/14 06:07:08;;;;;;;9.53;6.70;;;18.30;99.90;;;;;;6215119;23;20149;-63
2022/09/14 06:09:34;;;;;;;7.23;6.30;;;18.40;99.90;;;;;;6188596;23;20603;-62
2022/09/14 06:12:00;;;;;;;6.57;5.97;;;18.40;99.90;;;;;;6214272;23;20150;-63
2022/09/14 06:14:25;;;;;;;6.30;5.70;;;18.50;99.90;;;;;;6214699;23;20177;-62
2022/09/14 06:16:51;;;;;;;5.17;4.60;;;18.50;99.90;;;;;;6215428;23;20658;-62
2022/09/14 06:19:16;;;;;;;5.53;5.03;;;18.60;99.90;;;;;;6215083;23;20168;-62
2022/09/14 06:21:42;;;;;;;5.63;5.13;;;18.70;99.90;;;;;;6215118;23;20225;-62
2022/09/14 06:24:11;;;;;;;10.00;5.20;;;18.80;99.90;;;;;;6216227;23;20166;-62
2022/09/14 06:26:37;;;;;;;8.50;5.90;;;18.90;99.90;;;;;;6217494;23;20149;-62
2022/09/14 06:29:03;;;;;;;6.77;6.00;;;19.00;99.90;;;;;;6217414;23;20378;-64
2022/09/14 06:31:29;;;;;;;7.10;6.00;;;19.20;99.90;;;;;;6217025;23;20894;-63
2022/09/14 06:33:54;;;;;;;7.80;6.67;;;19.30;99.90;;;;;;6216149;23;20181;-66
2022/09/14 06:36:26;;;;;;;7.40;6.80;;;19.40;99.90;;;;;;6189743;23;20345;-63
2022/09/14 06:38:52;;;;;;;7.43;6.20;;;19.50;99.90;;;;;;6217217;23;20513;-64
2022/09/14 06:41:25;;;;;;;5.80;5.03;;;19.60;99.90;;;;;;6216669;23;20402;-64
2022/09/14 06:43:51;;;;;;;6.43;5.93;;;19.70;99.90;;;;;;6216691;23;20442;-63
2022/09/14 06:46:18;;;;;;;8.70;5.20;;;19.80;99.90;;;;;;6216817;23;20873;-63
2022/09/14 06:48:49;;;;;;;4.80;4.40;;;19.90;99.90;;;;;;6216126;23;20149;-66
2022/09/14 06:51:23;;;;;;;5.03;4.53;;;20.10;99.90;;;;;;6216465;23;20820;-62
2022/09/14 06:53:49;;;;;;;4.80;4.40;;;20.10;99.90;;;;;;6216246;23;20481;-62
2022/09/14 06:56:16;;;;;;;4.40;4.00;;;20.20;99.90;;;;;;6216560;23;20369;-62
2022/09/14 06:58:42;;;;;;;3.90;3.60;;;20.30;99.90;;;;;;6216584;23;20377;-66
2022/09/14 07:01:11;;;;;;;5.73;5.23;;;20.30;99.90;;;;;;6216799;23;20345;-63
2022/09/14 07:03:38;;;;;;;4.43;4.03;;;20.30;99.90;;;;;;6215682;23;20831;-62
2022/09/14 07:06:06;;;;;;;5.47;5.07;;;20.40;99.90;;;;;;6216305;23;20425;-63
2022/09/14 07:08:33;;;;;;;7.13;4.50;;;20.40;99.90;;;;;;6216719;23;20438;-62
2022/09/14 07:10:59;;;;;;;4.27;3.97;;;20.40;99.90;;;;;;6216283;23;20697;-62
2022/09/14 07:13:25;;;;;;;5.10;4.57;;;20.40;99.90;;;;;;6215500;23;20391;-63
2022/09/14 07:15:51;;;;;;;4.37;3.97;;;20.50;99.90;;;;;;6216591;23;20685;-63
2022/09/14 07:18:17;;;;;;;4.67;4.33;;;20.60;99.90;;;;;;6216435;23;20377;-62
2022/09/14 07:20:42;;;;;;;5.97;4.50;;;20.70;99.90;;;;;;6216660;23;20145;-62
2022/09/14 07:23:08;;;;;;;4.40;4.07;;;20.80;99.90;;;;;;6216471;23;20396;-62
2022/09/14 07:25:34;;;;;;;5.83;5.33;;;21.00;99.90;;;;;;6216693;23;20222;-62
2022/09/14 07:28:00;;;;;;;4.87;4.47;;;21.20;99.90;;;;;;6216820;23;20150;-62
2022/09/14 07:30:26;;;;;;;5.63;5.13;;;21.50;99.90;;;;;;6216876;23;20732;-62
2022/09/14 07:32:53;;;;;;;4.40;4.10;;;21.80;99.90;;;;;;6215716;23;20458;-62
2022/09/14 07:35:19;;;;;;;4.67;4.27;;;21.90;99.90;;;;;;6216269;23;20913;-62
2022/09/14 07:37:45;;;;;;;4.00;3.00;;;22.10;99.90;;;;;;6216511;23;20711;-62
2022/09/14 07:40:11;;;;;;;3.97;3.60;;;22.20;99.90;;;;;;6216375;23;20375;-62
2022/09/14 07:42:37;;;;;;;11.43;10.30;;;22.30;99.90;;;;;;6215924;23;20153;-62
2022/09/14 07:45:04;;;;;;;10.97;6.17;;;22.30;99.90;;;;;;6216286;23;20165;-62
2022/09/14 07:47:30;;;;;;;3.87;3.57;;;22.30;99.90;;;;;;6216312;23;20438;-62
2022/09/14 07:49:56;;;;;;;3.30;3.07;;;22.40;99.90;;;;;;6216563;23;20379;-63
2022/09/14 07:52:21;;;;;;;3.60;3.40;;;22.60;99.90;;;;;;6216256;23;20689;-60
2022/09/14 07:54:47;;;;;;;3.97;3.73;;;22.80;99.90;;;;;;6215675;23;20193;-62
2022/09/14 07:57:12;;;;;;;5.20;2.80;;;23.10;99.90;;;;;;6216267;23;20141;-62
2022/09/14 07:59:39;;;;;;;4.43;3.57;;;23.60;99.90;;;;;;6216434;23;20271;-62
2022/09/14 08:02:07;;;;;;;3.10;2.80;;;24.10;99.90;;;;;;6216482;23;20163;-63
2022/09/14 08:04:38;;;;;;;6.03;3.50;;;24.80;99.90;;;;;;6215872;23;20378;-63
2022/09/14 08:07:04;;;;;;;3.27;3.00;;;25.30;99.90;;;;;;6190285;23;20362;-63
2022/09/14 08:09:30;;;;;;;5.30;4.00;;;25.80;99.90;;;;;;6215941;23;20890;-63
2022/09/14 08:11:56;;;;;;;5.33;3.70;;;26.00;99.90;;;;;;6216035;23;20456;-63
2022/09/14 08:14:22;;;;;;;2.60;2.50;;;26.20;99.90;;;;;;6215762;23;20254;-63
2022/09/14 08:16:48;;;;;;;2.63;2.43;;;26.40;99.90;;;;;;6216341;23;20364;-63
2022/09/14 08:19:18;;;;;;;3.43;3.10;;;26.60;99.90;;;;;;6216201;23;20149;-63
2022/09/14 08:21:44;;;;;;;3.90;3.00;;;26.90;99.90;;;;;;6216226;23;20365;-63
2022/09/14 08:24:14;;;;;;;3.13;2.93;;;27.00;99.90;;;;;;6215468;23;20445;-63
2022/09/14 08:26:40;;;;;;;2.87;2.67;;;27.00;99.90;;;;;;6215997;23;20384;-64
2022/09/14 08:29:06;;;;;;;2.93;2.50;;;26.90;99.90;;;;;;6215871;23;20368;-66
2022/09/14 08:31:37;;;;;;;2.90;2.70;;;26.80;99.90;;;;;;6216169;23;20165;-64
2022/09/14 08:34:03;;;;;;;2.67;2.47;;;26.60;99.90;;;;;;6215604;23;20424;-64
2022/09/14 08:36:32;;;;;;;2.73;2.30;;;26.40;99.90;;;;;;6215710;23;20346;-65
2022/09/14 08:38:57;;;;;;;3.27;3.07;;;26.10;99.90;;;;;;6215715;23;20838;-65
2022/09/14 08:41:42;;;;;;;4.33;3.40;;;25.80;99.90;;;;;;6188980;23;20371;-64
2022/09/14 08:44:19;;;;;;;2.67;2.47;;;25.60;99.90;;;;;;6215185;23;20171;-64
2022/09/14 08:46:59;;;;;;;4.40;4.00;;;25.60;99.90;;;;;;6215174;23;20737;-64
2022/09/14 08:49:40;;;;;;;7.83;5.57;;;25.50;99.90;;;;;;6215800;23;20354;-64
2022/09/14 08:52:12;;;;;;;4.20;3.20;;;25.40;99.90;;;;;;6215791;23;20348;-64
2022/09/14 08:54:38;;;;;;;4.67;3.00;;;25.20;99.90;;;;;;6215118;23;20707;-64
2022/09/14 08:57:10;;;;;;;3.20;3.00;;;25.20;99.90;;;;;;6189054;23;20365;-65
2022/09/14 08:59:48;;;;;;;4.10;3.70;;;25.40;99.90;;;;;;6216568;23;20209;-64
2022/09/14 09:02:28;;;;;;;5.10;4.33;;;25.90;99.90;;;;;;6215921;23;20334;-65
2022/09/14 09:05:03;;;;;;;4.17;3.77;;;26.40;99.90;;;;;;6215899;23;20772;-65
2022/09/14 09:08:13;;;;;;;5.77;5.30;;;27.10;99.90;;;;;;6215425;23;20752;-64
2022/09/14 09:10:40;;;;;;;6.20;5.70;;;28.00;99.90;;;;;;6169401;23;20358;-64
2022/09/14 09:13:11;;;;;;;3.13;2.93;;;29.00;99.90;;;;;;6215365;23;20402;-61
2022/09/14 09:15:48;;;;;;;5.00;4.03;;;29.70;99.90;;;;;;6215848;23;20407;-64
2022/09/14 09:18:34;;;;;;;9.53;6.87;;;30.60;99.90;;;;;;6215542;23;20363;-65
2022/09/14 09:21:17;;;;;;;3.20;3.00;;;31.60;99.90;;;;;;6191502;23;20467;-65
2022/09/14 09:23:43;;;;;;;2.87;2.67;;;32.60;99.30;;;;;;6215112;23;20391;-64
2022/09/14 09:26:24;;;;;;;4.07;3.77;;;33.50;98.30;;;;;;6215781;23;20369;-62
2022/09/14 09:28:53;;;;;;;2.53;2.43;;;34.40;94.90;;;;;;6215503;23;20145;-62
2022/09/14 09:31:26;;;;;;;3.10;2.80;;;35.10;94.00;;;;;;6215468;23;20380;-63
2022/09/14 09:33:52;;;;;;;2.97;2.67;;;35.70;91.50;;;;;;6215376;23;20932;-62
2022/09/14 09:36:18;;;;;;;2.80;2.60;;;36.20;91.50;;;;;;6215321;23;20431;-62
2022/09/14 09:38:44;;;;;;;4.43;4.03;;;36.60;90.00;;;;;;6216014;23;20521;-63
2022/09/14 09:41:23;;;;;;;3.43;3.23;;;37.10;87.40;;;;;;6215203;23;20377;-63
2022/09/14 09:43:59;;;;;;;5.90;5.53;;;37.30;85.40;;;;;;6215361;23;20174;-61
2022/09/14 09:46:36;;;;;;;3.60;2.80;;;37.40;86.80;;;;;;6215544;23;20425;-63
2022/09/14 09:49:13;;;;;;;2.83;2.63;;;37.30;84.00;;;;;;6188752;23;20518;-63
2022/09/14 09:51:39;;;;;;;7.63;6.73;;;36.30;83.70;;;;;;6215283;23;20364;-63
2022/09/14 09:54:39;;;;;;;18.97;15.30;;;35.40;85.40;;;;;;6214729;23;20846;-65
2022/09/14 09:57:19;;;;;;;11.23;10.13;;;34.40;88.20;;;;;;6215315;23;20364;-63
2022/09/14 09:59:45;;;;;;;4.23;2.80;;;34.20;88.80;;;;;;6217479;23;20364;-62
2022/09/14 10:02:26;;;;;;;5.33;4.93;;;34.10;90.70;;;;;;6217041;23;20377;-63
2022/09/14 10:05:02;;;;;;;3.47;3.17;;;33.90;91.50;;;;;;6217320;23;20227;-64
2022/09/14 10:07:31;;;;;;;3.10;2.90;;;34.30;90.70;;;;;;6217621;23;20426;-65
2022/09/14 10:10:18;;;;;;;2.40;2.20;;;34.50;90.60;;;;;;6217280;23;20379;-66
2022/09/14 10:12:50;;;;;;;2.40;2.20;;;34.70;90.20;;;;;;6217043;23;20335;-67
2022/09/14 10:15:26;;;;;;;7.23;6.53;;;34.70;90.00;;;;;;6190416;23;20547;-67
2022/09/14 10:18:13;;;;;;;3.20;2.40;;;34.40;89.60;;;;;;6217572;23;20407;-67
2022/09/14 10:21:06;;;;;;;2.90;2.70;;;33.90;89.50;;;;;;6217449;23;20352;-66
2022/09/14 10:23:37;;;;;;;10.37;8.83;;;33.40;89.70;;;;;;6216509;23;20388;-64
2022/09/14 10:26:12;;;;;;;4.33;3.37;;;33.00;89.90;;;;;;6217418;23;20360;-62
2022/09/14 10:28:43;;;;;;;2.83;2.63;;;32.80;89.80;;;;;;6217050;23;20351;-63
2022/09/14 10:31:11;;;;;;;4.40;4.00;;;32.40;90.30;;;;;;6190490;23;20332;-63
2022/09/14 10:33:37;;;;;;;4.17;3.47;;;32.30;91.30;;;;;;6216427;23;20399;-62
2022/09/14 10:36:19;;;;;;;7.77;5.57;;;32.00;91.20;;;;;;6216962;23;20372;-63
2022/09/14 10:39:01;;;;;;;3.53;3.23;;;31.80;91.70;;;;;;6217361;23;20138;-62
2022/09/14 10:41:36;;;;;;;11.17;7.20;;;31.70;91.70;;;;;;6216809;23;20394;-63
2022/09/14 10:44:24;;;;;;;5.20;4.27;;;31.50;91.10;;;;;;6216261;23;20395;-63
2022/09/14 10:47:08;;;;;;;3.70;3.50;;;31.20;92.20;;;;;;6216656;23;20428;-63
2022/09/14 10:49:36;;;;;;;6.50;5.90;;;31.00;92.10;;;;;;6216639;23;20672;-63
2022/09/14 10:52:23;;;;;;;17.27;14.73;;;30.80;93.20;;;;;;6216657;23;20350;-63
2022/09/14 10:55:30;;;;;;;6.80;6.20;;;30.60;92.60;;;;;;6216640;23;20406;-62
2022/09/14 10:58:19;;;;;;;5.70;2.97;;;30.40;92.50;;;;;;6216927;23;20436;-62
2022/09/14 11:01:15;;;;;;;6.53;5.93;;;30.10;93.30;;;;;;6194932;23;20331;-63
2022/09/14 11:03:59;;;;;;;1.83;1.73;;;29.90;93.80;;;;;;6212455;23;20506;-64
2022/09/14 11:06:43;;;;;;;3.30;2.90;;;29.60;93.30;;;;;;6216689;23;20758;-63
2022/09/14 11:09:20;;;;;;;3.80;3.50;;;29.40;95.10;;;;;;6216349;23;20368;-63
2022/09/14 11:12:00;;;;;;;3.70;3.00;;;29.40;94.50;;;;;;6216573;23;20363;-62
2022/09/14 11:14:26;;;;;;;3.23;2.93;;;29.30;94.30;;;;;;6215927;23;21001;-63
2022/09/14 11:17:12;;;;;;;2.50;2.30;;;29.30;95.10;;;;;;6216225;23;20348;-60
2022/09/14 11:19:37;;;;;;;3.67;3.37;;;29.40;95.70;;;;;;6195576;23;20158;-64
2022/09/14 11:22:15;;;;;;;2.50;2.40;;;29.50;94.30;;;;;;6216180;23;20875;-64
2022/09/14 11:25:19;;;;;;;3.30;1.97;;;29.60;94.50;;;;;;6215892;23;20227;-63
2022/09/14 11:27:59;;;;;;;1.93;1.83;;;29.70;95.10;;;;;;6215108;23;20380;-62
2022/09/14 11:30:54;;;;;;;2.20;2.10;;;29.70;93.30;;;;;;6189498;23;20361;-62
2022/09/14 11:33:31;;;;;;;2.90;2.57;;;29.80;93.00;;;;;;6204686;23;20425;-62
2022/09/14 11:36:22;;;;;;;2.40;2.20;;;29.80;92.90;;;;;;6216821;23;20734;-66
2022/09/14 11:38:55;;;;;;;3.33;2.60;;;29.70;93.40;;;;;;6195413;23;20439;-62
2022/09/14 11:41:39;;;;;;;2.60;2.50;;;29.60;93.60;;;;;;6216412;23;20357;-67
2022/09/14 11:44:32;;;;;;;2.47;2.37;;;29.60;94.00;;;;;;6215944;23;20396;-64
2022/09/14 11:47:07;;;;;;;2.67;2.47;;;29.60;93.50;;;;;;6216782;23;20450;-62
2022/09/14 11:49:40;;;;;;;2.43;2.23;;;29.60;93.70;;;;;;6216364;23;20371;-62
2022/09/14 11:52:11;;;;;;;3.60;2.33;;;29.70;93.50;;;;;;6216977;23;20335;-63
2022/09/14 11:54:39;;;;;;;2.63;2.50;;;29.70;94.10;;;;;;6215824;23;20449;-63
2022/09/14 11:57:05;;;;;;;3.70;3.40;;;29.70;94.90;;;;;;6216442;23;20702;-63
2022/09/14 11:59:39;;;;;;;2.73;2.47;;;29.60;93.40;;;;;;6216281;23;20380;-63
2022/09/14 12:02:23;;;;;;;2.63;2.43;;;29.50;93.40;;;;;;6216118;23;20141;-63
2022/09/14 12:05:04;;;;;;;2.23;2.07;;;29.30;93.10;;;;;;6188787;23;20424;-63
2022/09/14 12:07:42;;;;;;;1.80;1.70;;;29.10;94.20;;;;;;6215919;23;20454;-63
2022/09/14 12:10:16;;;;;;;2.10;2.00;;;28.80;94.00;;;;;;6215922;23;20342;-62
2022/09/14 12:12:56;;;;;;;2.07;1.90;;;28.60;94.30;;;;;;6215607;23;20647;-63
2022/09/14 12:15:25;;;;;;;1.70;1.60;;;28.40;94.80;;;;;;6215688;23;20930;-63
2022/09/14 12:18:05;;;;;;;2.33;2.13;;;28.20;94.80;;;;;;6216289;23;20344;-64
2022/09/14 12:20:39;;;;;;;2.77;1.87;;;27.90;95.20;;;;;;6216001;23;20368;-64
2022/09/14 12:23:27;;;;;;;2.30;2.10;;;27.80;94.70;;;;;;6215435;23;20423;-63
2022/09/14 12:25:56;;;;;;;1.80;1.70;;;27.70;95.00;;;;;;6215833;23;20391;-62
2022/09/14 12:28:34;;;;;;;2.80;2.60;;;27.50;95.20;;;;;;6215524;23;20830;-63
2022/09/14 12:31:01;;;;;;;2.73;1.73;;;27.30;95.20;;;;;;6214705;23;20799;-63
2022/09/14 12:33:32;;;;;;;2.03;1.93;;;27.20;96.10;;;;;;6214349;23;20770;-66
2022/09/14 12:36:00;;;;;;;2.43;2.33;;;27.10;96.70;;;;;;6214440;23;20476;-64
2022/09/14 12:38:28;;;;;;;1.97;1.87;;;27.10;96.70;;;;;;6214516;23;20676;-64
2022/09/14 12:40:55;;;;;;;2.60;2.40;;;27.10;96.30;;;;;;6214434;23;20375;-64
2022/09/14 12:43:35;;;;;;;2.67;2.47;;;27.00;96.70;;;;;;6213693;23;20387;-64
2022/09/14 12:46:12;;;;;;;2.13;2.00;;;27.00;96.90;;;;;;6215525;23;20380;-64
2022/09/14 12:48:51;;;;;;;3.13;2.70;;;26.80;97.10;;;;;;6216017;23;20440;-65
2022/09/14 12:51:25;;;;;;;2.73;2.53;;;26.70;97.50;;;;;;6216329;23;20419;-64
2022/09/14 12:53:57;;;;;;;3.30;2.60;;;26.60;98.30;;;;;;6215032;23;20498;-64
2022/09/14 12:56:37;;;;;;;2.80;2.60;;;26.50;98.70;;;;;;6216014;23;20428;-64
2022/09/14 12:59:41;;;;;;;2.87;2.67;;;26.40;98.80;;;;;;6215878;23;20440;-64
2022/09/14 13:02:42;;;;;;;2.40;2.03;;;26.20;99.50;;;;;;6216030;23;20629;-64
2022/09/14 13:05:17;;;;;;;6.73;2.60;;;25.70;99.90;;;;;;6215584;23;20404;-64
2022/09/14 13:07:43;;;;;;;1.93;1.83;;;25.10;99.90;;;;;;6188926;23;20377;-64
2022/09/14 13:10:30;;;;;;;2.47;2.27;;;24.60;99.90;;;;;;6188365;23;20838;-68
2022/09/14 13:12:58;;;;;;;3.37;2.13;;;24.10;99.90;;;;;;6214580;23;20363;-67
2022/09/14 13:15:38;;;;;;;2.97;2.10;;;23.70;99.90;;;;;;6213972;23;20435;-68
2022/09/14 13:18:05;;;;;;;2.93;2.07;;;23.30;99.90;;;;;;6215212;23;20392;-67
2022/09/14 13:20:34;;;;;;;3.00;2.70;;;23.00;99.90;;;;;;6215411;23;20388;-68
2022/09/14 13:23:00;;;;;;;3.87;2.47;;;22.70;99.90;;;;;;6214761;23;20394;-69
2022/09/14 13:25:33;;;;;;;3.37;2.20;;;22.60;99.90;;;;;;6215029;23;20422;-67
2022/09/14 13:28:02;;;;;;;4.77;1.67;;;22.40;99.90;;;;;;6215488;23;20375;-63
2022/09/14 13:30:30;;;;;;;4.23;3.03;;;22.30;99.90;;;;;;6214945;23;20376;-65
2022/09/14 13:32:57;;;;;;;2.00;1.80;;;22.20;99.90;;;;;;6215622;23;20358;-65
2022/09/14 13:35:28;;;;;;;1.70;1.60;;;22.10;99.90;;;;;;6217390;23;20466;-64
2022/09/14 13:37:55;;;;;;;2.17;1.60;;;22.00;99.90;;;;;;6217102;23;20362;-66
2022/09/14 13:40:27;;;;;;;2.10;1.83;;;21.90;99.90;;;;;;6217456;23;20480;-65
2022/09/14 13:42:53;;;;;;;1.60;1.50;;;21.90;99.90;;;;;;6217320;23;20380;-65
2022/09/14 13:45:20;;;;;;;1.60;1.50;;;21.80;99.90;;;;;;6217847;23;20392;-66
2022/09/14 13:47:46;;;;;;;1.80;1.40;;;21.90;99.90;;;;;;6217599;23;20458;-64
2022/09/14 13:50:13;;;;;;;1.53;1.43;;;21.90;99.90;;;;;;6217560;23;20376;-66
2022/09/14 13:52:41;;;;;;;2.20;2.00;;;22.00;99.90;;;;;;6217337;23;20379;-67
2022/09/14 13:55:17;;;;;;;4.03;1.70;;;22.10;99.90;;;;;;6216973;23;20487;-67
2022/09/14 13:58:08;;;;;;;1.40;1.30;;;22.20;99.90;;;;;;6190742;23;20929;-67
2022/09/14 14:00:48;;;;;;;1.40;1.27;;;22.20;99.90;;;;;;6217447;23;20355;-66
2022/09/14 14:03:30;;;;;;;1.50;1.40;;;22.20;99.90;;;;;;6216872;23;20450;-65
2022/09/14 14:05:57;;;;;;;1.37;1.27;;;22.10;99.90;;;;;;6217338;23;20392;-66
2022/09/14 14:08:34;;;;;;;1.23;1.13;;;22.20;99.90;;;;;;6217492;23;20368;-66
2022/09/14 14:11:02;;;;;;;2.13;1.83;;;22.10;99.90;;;;;;6217502;23;20737;-66
2022/09/14 14:13:31;;;;;;;1.70;1.60;;;22.10;99.90;;;;;;6216297;23;20926;-66
2022/09/14 14:16:23;;;;;;;1.70;1.23;;;22.10;99.90;;;;;;6217391;23;20351;-66
2022/09/14 14:18:56;;;;;;;1.03;1.03;;;22.00;99.90;;;;;;6217653;23;20357;-66
2022/09/14 14:21:26;;;;;;;1.30;1.20;;;22.00;99.90;;;;;;6217539;23;20368;-65
2022/09/14 14:24:17;;;;;;;1.43;1.20;;;21.90;99.90;;;;;;6217181;23;20400;-66
2022/09/14 14:26:48;;;;;;;0.80;0.80;;;21.90;99.90;;;;;;6196983;23;20387;-66
2022/09/14 14:29:15;;;;;;;3.03;2.20;;;21.80;99.90;;;;;;6217086;23;20410;-66
2022/09/14 14:31:41;;;;;;;10.73;7.50;;;21.80;99.90;;;;;;6217291;23;20390;-66
2022/09/14 14:34:23;;;;;;;5.70;3.70;;;21.90;99.90;;;;;;6216760;23;20406;-65
2022/09/14 14:36:49;;;;;;;17.73;11.50;;;21.90;99.90;;;;;;6217375;23;20425;-66
2022/09/14 14:39:20;;;;;;;3.83;3.47;;;21.80;99.90;;;;;;6216901;23;20809;-65
2022/09/14 14:41:46;;;;;;;6.20;3.63;;;21.80;99.90;;;;;;6217659;23;20496;-66
2022/09/14 14:44:33;;;;;;;92.83;59.83;;;21.80;99.90;;;;;;6216880;23;20768;-66
2022/09/14 14:46:59;;;;;;;51.00;32.03;;;21.80;99.90;;;;;;6216962;23;20339;-66
2022/09/14 14:49:25;;;;;;;7.83;3.80;;;21.70;99.90;;;;;;6216728;23;20703;-67
2022/09/14 14:51:51;;;;;;;16.03;10.03;;;21.70;99.90;;;;;;6216669;23;20899;-66
2022/09/14 14:54:17;;;;;;;95.27;65.37;;;21.60;99.90;;;;;;6216444;23;20440;-67
2022/09/14 14:56:47;;;;;;;7.03;6.20;;;21.60;99.90;;;;;;6217110;23;20443;-67
2022/09/14 14:59:26;;;;;;;14.63;10.63;;;21.60;99.90;;;;;;6216745;23;20426;-65
2022/09/14 15:01:53;;;;;;;3.23;2.43;;;21.60;99.90;;;;;;6190158;23;20380;-67
2022/09/14 15:04:19;;;;;;;28.13;17.73;;;21.50;99.90;;;;;;6216609;23;20417;-67
2022/09/14 15:06:46;;;;;;;3.53;2.90;;;21.60;99.90;;;;;;6216713;23;20739;-67
2022/09/14 15:09:23;;;;;;;3.40;3.10;;;21.60;99.90;;;;;;6190452;23;20213;-67
2022/09/14 15:11:50;;;;;;;5.13;4.27;;;21.50;99.90;;;;;;6190200;23;20765;-68
2022/09/14 15:14:18;;;;;;;6.17;5.37;;;21.50;99.90;;;;;;6216092;23;20399;-66
2022/09/14 15:16:45;;;;;;;8.93;6.30;;;21.50;99.90;;;;;;6216631;23;20380;-67
2022/09/14 15:19:11;;;;;;;4.43;3.33;;;21.40;99.90;;;;;;6190067;23;20791;-67
2022/09/14 15:21:38;;;;;;;16.30;9.50;;;21.40;99.90;;;;;;6190318;23;20400;-68
2022/09/14 15:24:04;;;;;;;2.83;2.50;;;21.30;99.90;;;;;;6216226;23;20781;-66
2022/09/14 15:26:30;;;;;;;1.57;1.40;;;21.30;99.90;;;;;;6216489;23;20369;-66
2022/09/14 15:28:55;;;;;;;1.67;1.57;;;21.20;99.90;;;;;;6216495;23;20417;-66
2022/09/14 15:31:21;;;;;;;7.73;1.83;;;21.20;99.90;;;;;;6189699;23;20554;-67
2022/09/14 15:33:47;;;;;;;2.37;1.87;;;21.20;99.90;;;;;;6216196;23;20264;-69
2022/09/14 15:36:32;;;;;;;1.27;1.10;;;21.10;99.90;;;;;;6216326;23;20149;-67
2022/09/14 15:38:58;;;;;;;1.27;1.27;;;21.10;99.90;;;;;;6216618;23;20358;-67
2022/09/14 15:41:24;;;;;;;1.83;1.00;;;21.00;99.90;;;;;;6216392;23;20468;-67
2022/09/14 15:43:49;;;;;;;3.37;2.27;;;21.00;99.90;;;;;;6215838;23;20200;-67
2022/09/14 15:46:15;;;;;;;2.13;1.63;;;21.00;99.90;;;;;;6216808;23;20150;-67
2022/09/14 15:48:40;;;;;;;1.20;1.10;;;21.00;99.90;;;;;;6216244;23;20184;-66
2022/09/14 15:51:09;;;;;;;1.57;1.30;;;21.10;99.90;;;;;;6216591;23;20599;-67
2022/09/14 15:53:36;;;;;;;1.20;1.10;;;21.20;99.90;;;;;;6215694;23;20185;-66
2022/09/14 15:56:09;;;;;;;1.13;1.03;;;21.40;99.90;;;;;;6216061;23;20379;-65
2022/09/14 15:58:35;;;;;;;1.60;0.77;;;21.40;99.90;;;;;;6216231;23;20324;-66
2022/09/14 16:01:08;;;;;;;2.70;2.50;;;21.40;99.90;;;;;;6189539;23;20420;-67
2022/09/14 16:03:34;;;;;;;1.20;1.10;;;21.40;99.90;;;;;;6215986;23;20404;-66
2022/09/14 16:06:00;;;;;;;1.50;0.70;;;21.40;99.90;;;;;;6216113;23;20393;-66
2022/09/14 16:08:25;;;;;;;0.80;0.80;;;21.30;99.90;;;;;;6216176;23;20526;-67
2022/09/14 16:10:59;;;;;;;1.50;0.90;;;21.30;99.90;;;;;;6216030;23;20377;-68
2022/09/14 16:13:24;;;;;;;0.77;0.60;;;21.30;99.90;;;;;;6215613;23;20149;-67
2022/09/14 16:15:52;;;;;;;0.80;0.80;;;21.20;99.90;;;;;;6215468;23;20380;-67
2022/09/14 16:18:18;;;;;;;0.93;0.83;;;21.20;99.90;;;;;;6216092;23;20263;-67
2022/09/14 16:20:43;;;;;;;0.77;0.77;;;21.10;99.90;;;;;;6215924;23;20375;-67
2022/09/14 16:23:09;;;;;;;1.20;1.10;;;21.00;99.90;;;;;;6215611;23;20373;-66
2022/09/14 16:25:40;;;;;;;1.13;0.87;;;20.90;99.90;;;;;;6216088;23;20178;-66
2022/09/14 16:28:06;;;;;;;1.07;0.97;;;20.90;99.90;;;;;;6215967;23;20586;-67
2022/09/14 16:30:32;;;;;;;1.30;1.20;;;20.80;99.90;;;;;;6216041;23;20400;-67
2022/09/14 16:32:58;;;;;;;1.97;1.87;;;20.70;99.90;;;;;;6189303;23;20389;-66
2022/09/14 16:35:24;;;;;;;1.00;1.00;;;20.60;99.90;;;;;;6214726;23;20177;-69
2022/09/14 16:37:50;;;;;;;1.73;1.63;;;20.60;99.90;;;;;;6214507;23;20649;-66
2022/09/14 16:40:16;;;;;;;3.00;2.20;;;20.50;99.90;;;;;;6214957;23;20456;-67
2022/09/14 16:42:42;;;;;;;1.90;1.60;;;20.50;99.90;;;;;;6214499;23;20381;-66
2022/09/14 16:45:08;;;;;;;2.33;1.57;;;20.50;99.90;;;;;;6214896;23;20865;-65
2022/09/14 16:47:33;;;;;;;1.87;1.67;;;20.40;99.90;;;;;;6214399;23;20395;-63
2022/09/14 16:49:59;;;;;;;1.30;1.30;;;20.40;99.90;;;;;;6214359;23;20376;-66
2022/09/14 16:52:25;;;;;;;2.97;1.60;;;20.40;99.90;;;;;;6214457;23;20477;-65
2022/09/14 16:54:50;;;;;;;1.73;1.63;;;20.40;99.90;;;;;;6214006;23;20225;-67
2022/09/14 16:57:16;;;;;;;1.37;1.27;;;20.40;99.90;;;;;;6187959;23;20185;-67
2022/09/14 16:59:42;;;;;;;0.80;0.80;;;20.40;99.90;;;;;;6214893;23;20471;-66
2022/09/14 17:02:10;;;;;;;1.83;1.30;;;20.50;99.90;;;;;;6216171;23;20473;-64
2022/09/14 17:04:36;;;;;;;1.90;1.80;;;20.50;99.90;;;;;;6215321;23;20427;-65
2022/09/14 17:07:01;;;;;;;1.57;1.30;;;20.50;99.90;;;;;;6214618;23;20373;-64
2022/09/14 17:09:29;;;;;;;4.20;3.63;;;20.50;99.90;;;;;;6215164;23;20160;-63